KHOB/HOB METAR and TAF weather

Enter ICAO airport designator
Station Type Date Time Source
KHOB METAR 2019/05/25 14:50 UTC NOAA

KHOB 251450Z 13014KT 7SM BKN015 BKN022 23/19 A3000


Station Type Date Time Source
KHOB Decoded METAR 2019/05/25 14:50 UTC NOAA

Hobbs / Lea County, NM, United States (KHOB) 32-41N 103-13W
May 25, 2019 - 10:50 AM EDT / 2019.05.25 1450 UTC
Wind: from the SE (130 degrees) at 16 MPH (14 KT):0
Visibility: 7 mile(s):0
Sky conditions: mostly cloudy
Temperature: 73 F (23 C)
Dew Point: 66 F (19 C)
Relative Humidity: 78%
Pressure (altimeter): 30 in. Hg (1015 hPa)
ob: KHOB 251450Z 13014KT 7SM BKN015 BKN022 23/19 A3000
cycle: 15

Station Type Date Time Source
KHOB TAF 2019/05/25 12:24 UTC NOAA

TAF KHOB 251121Z 2512/2612 12008KT P6SM BKN015
FM251800 14015G25KT P6SM SCT050 SCT250

Example: see airport list